sensor_id;sensor_type;location;lat;lon;timestamp;P1;durP1;ratioP1;P2;durP2;ratioP2
43664;SDS011;29263;48.172;11.484;2023-02-28T00:00:22;2.20;;;1.70;;
43664;SDS011;29263;48.172;11.484;2023-02-28T00:02:48;3.73;;;1.67;;
43664;SDS011;29263;48.172;11.484;2023-02-28T00:05:17;3.23;;;1.87;;
43664;SDS011;29263;48.172;11.484;2023-02-28T00:07:44;2.67;;;1.80;;
43664;SDS011;29263;48.172;11.484;2023-02-28T00:10:12;3.40;;;2.10;;
43664;SDS011;29263;48.172;11.484;2023-02-28T00:12:39;3.50;;;2.40;;
43664;SDS011;29263;48.172;11.484;2023-02-28T00:15:05;4.53;;;1.90;;
43664;SDS011;29263;48.172;11.484;2023-02-28T00:17:32;2.67;;;1.80;;
43664;SDS011;29263;48.172;11.484;2023-02-28T00:19:57;3.00;;;2.27;;
43664;SDS011;29263;48.172;11.484;2023-02-28T00:22:37;3.75;;;2.28;;
43664;SDS011;29263;48.172;11.484;2023-02-28T00:25:04;3.13;;;1.80;;
43664;SDS011;29263;48.172;11.484;2023-02-28T00:27:32;2.43;;;2.10;;
43664;SDS011;29263;48.172;11.484;2023-02-28T00:29:58;3.57;;;2.00;;
43664;SDS011;29263;48.172;11.484;2023-02-28T00:32:23;4.17;;;2.17;;
43664;SDS011;29263;48.172;11.484;2023-02-28T00:34:49;3.20;;;2.07;;
43664;SDS011;29263;48.172;11.484;2023-02-28T00:37:14;4.40;;;2.03;;
43664;SDS011;29263;48.172;11.484;2023-02-28T00:39:40;2.90;;;1.70;;
43664;SDS011;29263;48.172;11.484;2023-02-28T00:42:06;2.60;;;1.60;;
43664;SDS011;29263;48.172;11.484;2023-02-28T00:44:35;3.43;;;2.17;;
43664;SDS011;29263;48.172;11.484;2023-02-28T00:47:01;3.63;;;2.07;;
43664;SDS011;29263;48.172;11.484;2023-02-28T00:49:30;4.23;;;2.20;;
43664;SDS011;29263;48.172;11.484;2023-02-28T00:51:56;6.03;;;2.20;;
43664;SDS011;29263;48.172;11.484;2023-02-28T00:54:22;6.67;;;2.43;;
43664;SDS011;29263;48.172;11.484;2023-02-28T00:56:48;4.63;;;1.97;;
43664;SDS011;29263;48.172;11.484;2023-02-28T00:59:15;5.17;;;2.17;;
43664;SDS011;29263;48.172;11.484;2023-02-28T01:01:45;2.60;;;1.93;;
43664;SDS011;29263;48.172;11.484;2023-02-28T01:06:37;3.50;;;2.23;;
43664;SDS011;29263;48.172;11.484;2023-02-28T01:09:04;3.53;;;2.00;;
43664;SDS011;29263;48.172;11.484;2023-02-28T01:11:30;3.43;;;2.10;;
43664;SDS011;29263;48.172;11.484;2023-02-28T01:13:57;3.97;;;1.90;;
43664;SDS011;29263;48.172;11.484;2023-02-28T01:16:23;2.73;;;2.20;;
43664;SDS011;29263;48.172;11.484;2023-02-28T01:18:49;4.33;;;2.10;;
43664;SDS011;29263;48.172;11.484;2023-02-28T01:21:16;2.30;;;1.83;;
43664;SDS011;29263;48.172;11.484;2023-02-28T01:23:43;3.17;;;1.87;;
43664;SDS011;29263;48.172;11.484;2023-02-28T01:26:12;5.73;;;2.17;;
43664;SDS011;29263;48.172;11.484;2023-02-28T01:28:42;3.57;;;2.10;;
43664;SDS011;29263;48.172;11.484;2023-02-28T01:31:08;4.17;;;2.60;;
43664;SDS011;29263;48.172;11.484;2023-02-28T01:33:35;3.57;;;2.20;;
43664;SDS011;29263;48.172;11.484;2023-02-28T01:36:01;3.93;;;2.20;;
43664;SDS011;29263;48.172;11.484;2023-02-28T01:38:29;5.80;;;2.40;;
43664;SDS011;29263;48.172;11.484;2023-02-28T01:40:55;3.20;;;2.17;;
43664;SDS011;29263;48.172;11.484;2023-02-28T01:43:24;5.17;;;2.40;;
43664;SDS011;29263;48.172;11.484;2023-02-28T01:45:50;5.40;;;2.70;;
43664;SDS011;29263;48.172;11.484;2023-02-28T01:48:21;2.73;;;2.10;;
43664;SDS011;29263;48.172;11.484;2023-02-28T01:53:30;2.83;;;1.83;;
43664;SDS011;29263;48.172;11.484;2023-02-28T01:55:59;3.60;;;2.23;;
43664;SDS011;29263;48.172;11.484;2023-02-28T01:58:27;5.57;;;2.57;;
43664;SDS011;29263;48.172;11.484;2023-02-28T02:00:53;2.40;;;2.20;;
43664;SDS011;29263;48.172;11.484;2023-02-28T02:03:18;3.97;;;2.33;;
43664;SDS011;29263;48.172;11.484;2023-02-28T02:05:45;3.27;;;2.20;;
43664;SDS011;29263;48.172;11.484;2023-02-28T02:08:13;3.70;;;2.37;;
43664;SDS011;29263;48.172;11.484;2023-02-28T02:10:50;2.83;;;1.93;;
43664;SDS011;29263;48.172;11.484;2023-02-28T02:18:48;4.97;;;2.50;;
43664;SDS011;29263;48.172;11.484;2023-02-28T02:23:58;4.27;;;2.60;;
43664;SDS011;29263;48.172;11.484;2023-02-28T02:26:35;2.97;;;2.20;;
43664;SDS011;29263;48.172;11.484;2023-02-28T02:32:07;3.40;;;2.40;;
43664;SDS011;29263;48.172;11.484;2023-02-28T02:34:46;4.07;;;2.73;;
43664;SDS011;29263;48.172;11.484;2023-02-28T02:45:16;3.47;;;2.50;;
43664;SDS011;29263;48.172;11.484;2023-02-28T02:50:11;4.47;;;2.30;;
43664;SDS011;29263;48.172;11.484;2023-02-28T02:52:44;5.53;;;2.23;;
43664;SDS011;29263;48.172;11.484;2023-02-28T02:55:16;3.53;;;2.30;;
43664;SDS011;29263;48.172;11.484;2023-02-28T02:57:45;4.07;;;2.60;;
43664;SDS011;29263;48.172;11.484;2023-02-28T03:00:14;5.93;;;2.60;;
43664;SDS011;29263;48.172;11.484;2023-02-28T03:02:42;6.07;;;2.70;;
43664;SDS011;29263;48.172;11.484;2023-02-28T03:05:16;4.07;;;2.47;;
43664;SDS011;29263;48.172;11.484;2023-02-28T03:07:43;4.10;;;2.33;;
43664;SDS011;29263;48.172;11.484;2023-02-28T03:12:59;3.60;;;2.43;;
43664;SDS011;29263;48.172;11.484;2023-02-28T03:15:47;4.23;;;2.63;;
43664;SDS011;29263;48.172;11.484;2023-02-28T03:24:08;3.90;;;2.20;;
43664;SDS011;29263;48.172;11.484;2023-02-28T03:26:42;4.93;;;2.27;;
43664;SDS011;29263;48.172;11.484;2023-02-28T03:29:13;4.13;;;2.40;;
43664;SDS011;29263;48.172;11.484;2023-02-28T03:34:34;5.50;;;2.33;;
43664;SDS011;29263;48.172;11.484;2023-02-28T03:37:08;5.40;;;3.03;;
43664;SDS011;29263;48.172;11.484;2023-02-28T03:39:40;4.23;;;2.77;;
43664;SDS011;29263;48.172;11.484;2023-02-28T03:42:11;4.63;;;3.00;;
43664;SDS011;29263;48.172;11.484;2023-02-28T03:44:45;4.90;;;2.87;;
43664;SDS011;29263;48.172;11.484;2023-02-28T03:47:14;4.60;;;3.13;;
43664;SDS011;29263;48.172;11.484;2023-02-28T03:52:19;5.23;;;2.90;;
43664;SDS011;29263;48.172;11.484;2023-02-28T03:54:48;4.15;;;2.47;;
43664;SDS011;29263;48.172;11.484;2023-02-28T03:57:22;4.67;;;2.67;;
43664;SDS011;29263;48.172;11.484;2023-02-28T03:59:59;4.70;;;3.08;;
43664;SDS011;29263;48.172;11.484;2023-02-28T04:02:34;6.13;;;3.77;;
43664;SDS011;29263;48.172;11.484;2023-02-28T04:05:00;5.80;;;3.10;;
43664;SDS011;29263;48.172;11.484;2023-02-28T04:07:29;5.43;;;3.77;;
43664;SDS011;29263;48.172;11.484;2023-02-28T04:09:55;4.75;;;3.08;;
43664;SDS011;29263;48.172;11.484;2023-02-28T04:12:21;4.93;;;3.37;;
43664;SDS011;29263;48.172;11.484;2023-02-28T04:14:51;8.60;;;3.50;;
43664;SDS011;29263;48.172;11.484;2023-02-28T04:17:17;6.43;;;3.25;;
43664;SDS011;29263;48.172;11.484;2023-02-28T04:19:42;6.00;;;3.10;;
43664;SDS011;29263;48.172;11.484;2023-02-28T04:22:08;5.47;;;3.40;;
43664;SDS011;29263;48.172;11.484;2023-02-28T04:24:34;7.10;;;3.40;;
43664;SDS011;29263;48.172;11.484;2023-02-28T04:27:00;5.37;;;3.27;;
43664;SDS011;29263;48.172;11.484;2023-02-28T04:29:28;8.53;;;3.77;;
43664;SDS011;29263;48.172;11.484;2023-02-28T04:31:56;5.50;;;3.00;;
43664;SDS011;29263;48.172;11.484;2023-02-28T04:34:25;6.47;;;3.73;;
43664;SDS011;29263;48.172;11.484;2023-02-28T04:36:55;6.20;;;4.03;;
43664;SDS011;29263;48.172;11.484;2023-02-28T04:39:22;5.93;;;3.60;;
43664;SDS011;29263;48.172;11.484;2023-02-28T04:41:48;5.10;;;3.10;;
43664;SDS011;29263;48.172;11.484;2023-02-28T04:44:14;5.50;;;3.83;;
43664;SDS011;29263;48.172;11.484;2023-02-28T04:46:40;5.33;;;3.10;;
43664;SDS011;29263;48.172;11.484;2023-02-28T04:49:06;6.63;;;3.80;;
43664;SDS011;29263;48.172;11.484;2023-02-28T04:51:33;7.17;;;4.13;;
43664;SDS011;29263;48.172;11.484;2023-02-28T04:53:58;6.10;;;4.00;;
43664;SDS011;29263;48.172;11.484;2023-02-28T04:56:24;7.70;;;3.83;;
43664;SDS011;29263;48.172;11.484;2023-02-28T04:58:50;7.47;;;4.50;;
43664;SDS011;29263;48.172;11.484;2023-02-28T05:01:31;6.93;;;3.93;;
43664;SDS011;29263;48.172;11.484;2023-02-28T05:04:02;6.43;;;3.60;;
43664;SDS011;29263;48.172;11.484;2023-02-28T05:06:30;7.87;;;4.07;;
43664;SDS011;29263;48.172;11.484;2023-02-28T05:08:57;6.07;;;4.07;;
43664;SDS011;29263;48.172;11.484;2023-02-28T05:11:33;7.50;;;4.53;;
43664;SDS011;29263;48.172;11.484;2023-02-28T05:14:01;8.53;;;4.10;;
43664;SDS011;29263;48.172;11.484;2023-02-28T05:16:28;6.30;;;4.10;;
43664;SDS011;29263;48.172;11.484;2023-02-28T05:18:54;8.10;;;4.30;;
43664;SDS011;29263;48.172;11.484;2023-02-28T05:23:50;10.53;;;4.70;;
43664;SDS011;29263;48.172;11.484;2023-02-28T05:26:17;8.17;;;4.50;;
43664;SDS011;29263;48.172;11.484;2023-02-28T05:28:43;7.83;;;4.67;;
43664;SDS011;29263;48.172;11.484;2023-02-28T05:31:11;7.27;;;4.57;;
43664;SDS011;29263;48.172;11.484;2023-02-28T05:33:37;7.95;;;4.47;;
43664;SDS011;29263;48.172;11.484;2023-02-28T05:36:03;7.13;;;4.40;;
43664;SDS011;29263;48.172;11.484;2023-02-28T05:38:29;10.40;;;4.53;;
43664;SDS011;29263;48.172;11.484;2023-02-28T05:40:55;8.17;;;4.13;;
43664;SDS011;29263;48.172;11.484;2023-02-28T05:43:21;7.87;;;4.70;;
43664;SDS011;29263;48.172;11.484;2023-02-28T05:45:47;8.50;;;4.23;;
43664;SDS011;29263;48.172;11.484;2023-02-28T05:48:13;5.63;;;4.60;;
43664;SDS011;29263;48.172;11.484;2023-02-28T05:50:38;8.57;;;4.67;;
43664;SDS011;29263;48.172;11.484;2023-02-28T05:53:04;8.20;;;4.90;;
43664;SDS011;29263;48.172;11.484;2023-02-28T05:55:30;8.53;;;5.07;;
43664;SDS011;29263;48.172;11.484;2023-02-28T05:57:55;9.90;;;5.33;;
43664;SDS011;29263;48.172;11.484;2023-02-28T06:00:22;9.50;;;5.57;;
43664;SDS011;29263;48.172;11.484;2023-02-28T06:02:47;8.27;;;5.53;;
43664;SDS011;29263;48.172;11.484;2023-02-28T06:05:16;7.70;;;5.40;;
43664;SDS011;29263;48.172;11.484;2023-02-28T06:07:43;9.23;;;5.22;;
43664;SDS011;29263;48.172;11.484;2023-02-28T06:10:10;9.67;;;5.30;;
43664;SDS011;29263;48.172;11.484;2023-02-28T06:12:36;9.13;;;5.33;;
43664;SDS011;29263;48.172;11.484;2023-02-28T06:15:02;8.70;;;5.70;;
43664;SDS011;29263;48.172;11.484;2023-02-28T06:17:31;8.87;;;5.70;;
43664;SDS011;29263;48.172;11.484;2023-02-28T06:19:57;11.83;;;5.77;;
43664;SDS011;29263;48.172;11.484;2023-02-28T06:22:22;12.17;;;7.03;;
43664;SDS011;29263;48.172;11.484;2023-02-28T06:24:48;9.10;;;6.10;;
43664;SDS011;29263;48.172;11.484;2023-02-28T06:27:13;11.17;;;6.20;;
43664;SDS011;29263;48.172;11.484;2023-02-28T06:29:39;10.27;;;5.93;;
43664;SDS011;29263;48.172;11.484;2023-02-28T06:32:05;8.23;;;5.97;;
43664;SDS011;29263;48.172;11.484;2023-02-28T06:34:31;9.73;;;6.50;;
43664;SDS011;29263;48.172;11.484;2023-02-28T06:36:58;9.90;;;5.70;;
43664;SDS011;29263;48.172;11.484;2023-02-28T06:39:27;13.10;;;5.73;;
43664;SDS011;29263;48.172;11.484;2023-02-28T06:41:55;8.70;;;6.20;;
43664;SDS011;29263;48.172;11.484;2023-02-28T06:44:21;13.77;;;6.10;;
43664;SDS011;29263;48.172;11.484;2023-02-28T06:46:48;10.50;;;6.97;;
43664;SDS011;29263;48.172;11.484;2023-02-28T06:49:13;10.87;;;6.50;;
43664;SDS011;29263;48.172;11.484;2023-02-28T06:51:41;10.57;;;6.60;;
43664;SDS011;29263;48.172;11.484;2023-02-28T06:54:11;12.53;;;6.50;;
43664;SDS011;29263;48.172;11.484;2023-02-28T06:56:37;9.77;;;6.23;;
43664;SDS011;29263;48.172;11.484;2023-02-28T06:59:03;11.67;;;6.57;;
43664;SDS011;29263;48.172;11.484;2023-02-28T07:01:29;10.67;;;6.57;;
43664;SDS011;29263;48.172;11.484;2023-02-28T07:03:57;13.70;;;6.70;;
43664;SDS011;29263;48.172;11.484;2023-02-28T07:06:23;10.13;;;6.70;;
43664;SDS011;29263;48.172;11.484;2023-02-28T07:08:49;11.10;;;7.67;;
43664;SDS011;29263;48.172;11.484;2023-02-28T07:11:17;12.60;;;7.57;;
43664;SDS011;29263;48.172;11.484;2023-02-28T07:13:43;11.93;;;7.20;;
43664;SDS011;29263;48.172;11.484;2023-02-28T07:16:10;12.67;;;7.00;;
43664;SDS011;29263;48.172;11.484;2023-02-28T07:18:36;11.67;;;7.67;;
43664;SDS011;29263;48.172;11.484;2023-02-28T07:21:03;10.57;;;6.53;;
43664;SDS011;29263;48.172;11.484;2023-02-28T07:23:30;13.97;;;7.53;;
43664;SDS011;29263;48.172;11.484;2023-02-28T07:25:56;12.47;;;7.97;;
43664;SDS011;29263;48.172;11.484;2023-02-28T07:28:21;10.53;;;7.43;;
43664;SDS011;29263;48.172;11.484;2023-02-28T07:30:47;14.93;;;7.90;;
43664;SDS011;29263;48.172;11.484;2023-02-28T07:33:13;11.97;;;7.30;;
43664;SDS011;29263;48.172;11.484;2023-02-28T07:35:39;14.20;;;7.47;;
43664;SDS011;29263;48.172;11.484;2023-02-28T07:38:05;11.43;;;7.83;;
43664;SDS011;29263;48.172;11.484;2023-02-28T07:40:32;12.10;;;8.00;;
43664;SDS011;29263;48.172;11.484;2023-02-28T07:42:59;12.80;;;7.67;;
43664;SDS011;29263;48.172;11.484;2023-02-28T07:45:25;13.67;;;7.80;;
43664;SDS011;29263;48.172;11.484;2023-02-28T07:47:51;12.10;;;7.20;;
43664;SDS011;29263;48.172;11.484;2023-02-28T07:50:17;14.40;;;7.23;;
43664;SDS011;29263;48.172;11.484;2023-02-28T07:52:43;12.50;;;7.23;;
43664;SDS011;29263;48.172;11.484;2023-02-28T07:55:09;11.10;;;7.20;;
43664;SDS011;29263;48.172;11.484;2023-02-28T07:57:35;12.80;;;8.20;;
43664;SDS011;29263;48.172;11.484;2023-02-28T08:00:02;14.63;;;7.57;;
43664;SDS011;29263;48.172;11.484;2023-02-28T08:02:29;10.67;;;7.80;;
43664;SDS011;29263;48.172;11.484;2023-02-28T08:04:55;11.17;;;7.33;;
43664;SDS011;29263;48.172;11.484;2023-02-28T08:07:21;13.13;;;7.70;;
43664;SDS011;29263;48.172;11.484;2023-02-28T08:09:46;10.37;;;7.53;;
43664;SDS011;29263;48.172;11.484;2023-02-28T08:12:12;11.13;;;7.37;;
43664;SDS011;29263;48.172;11.484;2023-02-28T08:14:37;13.27;;;7.70;;
43664;SDS011;29263;48.172;11.484;2023-02-28T08:17:04;11.27;;;7.80;;
43664;SDS011;29263;48.172;11.484;2023-02-28T08:19:30;12.47;;;7.63;;
43664;SDS011;29263;48.172;11.484;2023-02-28T08:21:56;14.10;;;8.73;;
43664;SDS011;29263;48.172;11.484;2023-02-28T08:24:22;11.77;;;8.00;;
43664;SDS011;29263;48.172;11.484;2023-02-28T08:26:48;9.60;;;7.67;;
43664;SDS011;29263;48.172;11.484;2023-02-28T08:29:14;13.07;;;8.07;;
43664;SDS011;29263;48.172;11.484;2023-02-28T08:31:39;13.13;;;7.37;;
43664;SDS011;29263;48.172;11.484;2023-02-28T08:34:09;12.30;;;8.07;;
43664;SDS011;29263;48.172;11.484;2023-02-28T08:36:36;16.03;;;8.03;;
43664;SDS011;29263;48.172;11.484;2023-02-28T08:39:02;12.00;;;7.63;;
43664;SDS011;29263;48.172;11.484;2023-02-28T08:41:28;11.60;;;7.80;;
43664;SDS011;29263;48.172;11.484;2023-02-28T08:43:57;16.10;;;7.85;;
43664;SDS011;29263;48.172;11.484;2023-02-28T08:46:23;10.37;;;7.70;;
43664;SDS011;29263;48.172;11.484;2023-02-28T08:48:52;12.07;;;7.90;;
43664;SDS011;29263;48.172;11.484;2023-02-28T08:51:19;13.53;;;8.40;;
43664;SDS011;29263;48.172;11.484;2023-02-28T08:53:51;16.73;;;8.13;;
43664;SDS011;29263;48.172;11.484;2023-02-28T08:56:17;10.53;;;7.53;;
43664;SDS011;29263;48.172;11.484;2023-02-28T08:58:43;14.10;;;8.73;;
43664;SDS011;29263;48.172;11.484;2023-02-28T09:01:14;14.23;;;7.77;;
43664;SDS011;29263;48.172;11.484;2023-02-28T09:03:41;12.57;;;8.10;;
43664;SDS011;29263;48.172;11.484;2023-02-28T09:06:08;10.93;;;7.63;;
43664;SDS011;29263;48.172;11.484;2023-02-28T09:08:34;13.33;;;8.20;;
43664;SDS011;29263;48.172;11.484;2023-02-28T09:11:00;11.67;;;7.77;;
43664;SDS011;29263;48.172;11.484;2023-02-28T09:13:27;13.50;;;8.10;;
43664;SDS011;29263;48.172;11.484;2023-02-28T09:15:53;12.77;;;8.20;;
43664;SDS011;29263;48.172;11.484;2023-02-28T09:18:22;13.80;;;7.28;;
43664;SDS011;29263;48.172;11.484;2023-02-28T09:20:47;12.50;;;7.60;;
43664;SDS011;29263;48.172;11.484;2023-02-28T09:23:13;13.17;;;7.67;;
43664;SDS011;29263;48.172;11.484;2023-02-28T09:25:45;12.03;;;8.33;;
43664;SDS011;29263;48.172;11.484;2023-02-28T09:28:12;11.73;;;8.07;;
43664;SDS011;29263;48.172;11.484;2023-02-28T09:30:40;13.17;;;8.63;;
43664;SDS011;29263;48.172;11.484;2023-02-28T09:33:06;13.10;;;8.57;;
43664;SDS011;29263;48.172;11.484;2023-02-28T09:35:35;13.73;;;8.40;;
43664;SDS011;29263;48.172;11.484;2023-02-28T09:38:02;12.10;;;8.20;;
43664;SDS011;29263;48.172;11.484;2023-02-28T09:40:29;12.03;;;8.20;;
43664;SDS011;29263;48.172;11.484;2023-02-28T09:42:55;17.60;;;8.40;;
43664;SDS011;29263;48.172;11.484;2023-02-28T09:47:54;12.17;;;8.13;;
43664;SDS011;29263;48.172;11.484;2023-02-28T09:52:55;12.70;;;8.13;;
43664;SDS011;29263;48.172;11.484;2023-02-28T09:55:33;14.83;;;8.47;;
43664;SDS011;29263;48.172;11.484;2023-02-28T09:58:18;13.87;;;8.10;;
43664;SDS011;29263;48.172;11.484;2023-02-28T10:00:44;15.80;;;8.32;;
43664;SDS011;29263;48.172;11.484;2023-02-28T10:03:35;12.90;;;8.73;;
43664;SDS011;29263;48.172;11.484;2023-02-28T10:06:13;15.23;;;8.63;;
43664;SDS011;29263;48.172;11.484;2023-02-28T10:08:53;11.10;;;7.90;;
43664;SDS011;29263;48.172;11.484;2023-02-28T10:11:26;14.20;;;8.83;;
43664;SDS011;29263;48.172;11.484;2023-02-28T10:14:28;12.57;;;8.10;;
43664;SDS011;29263;48.172;11.484;2023-02-28T10:16:59;12.00;;;7.63;;
43664;SDS011;29263;48.172;11.484;2023-02-28T10:22:03;12.10;;;7.97;;
43664;SDS011;29263;48.172;11.484;2023-02-28T10:24:37;11.73;;;7.60;;
43664;SDS011;29263;48.172;11.484;2023-02-28T10:27:16;14.40;;;8.13;;
43664;SDS011;29263;48.172;11.484;2023-02-28T10:29:44;11.97;;;7.27;;
43664;SDS011;29263;48.172;11.484;2023-02-28T10:32:11;14.77;;;8.50;;
43664;SDS011;29263;48.172;11.484;2023-02-28T10:34:40;12.18;;;8.05;;
43664;SDS011;29263;48.172;11.484;2023-02-28T10:37:05;13.33;;;7.77;;
43664;SDS011;29263;48.172;11.484;2023-02-28T10:42:02;13.43;;;7.90;;
43664;SDS011;29263;48.172;11.484;2023-02-28T10:44:28;11.27;;;7.60;;
43664;SDS011;29263;48.172;11.484;2023-02-28T10:46:54;12.23;;;8.17;;
43664;SDS011;29263;48.172;11.484;2023-02-28T10:49:22;10.53;;;7.23;;
43664;SDS011;29263;48.172;11.484;2023-02-28T10:51:51;11.60;;;7.60;;
43664;SDS011;29263;48.172;11.484;2023-02-28T10:54:24;11.60;;;7.60;;
43664;SDS011;29263;48.172;11.484;2023-02-28T10:59:40;12.80;;;7.57;;
43664;SDS011;29263;48.172;11.484;2023-02-28T11:02:28;9.60;;;6.53;;
43664;SDS011;29263;48.172;11.484;2023-02-28T11:05:02;11.30;;;7.90;;
43664;SDS011;29263;48.172;11.484;2023-02-28T11:07:52;11.90;;;7.22;;
43664;SDS011;29263;48.172;11.484;2023-02-28T11:10:39;9.70;;;6.80;;
43664;SDS011;29263;48.172;11.484;2023-02-28T11:13:12;10.13;;;7.03;;
43664;SDS011;29263;48.172;11.484;2023-02-28T11:15:54;11.90;;;7.43;;
43664;SDS011;29263;48.172;11.484;2023-02-28T11:18:27;10.83;;;7.30;;
43664;SDS011;29263;48.172;11.484;2023-02-28T11:20:56;12.00;;;6.97;;
43664;SDS011;29263;48.172;11.484;2023-02-28T11:23:25;11.17;;;7.77;;
43664;SDS011;29263;48.172;11.484;2023-02-28T11:25:52;11.00;;;7.33;;
43664;SDS011;29263;48.172;11.484;2023-02-28T11:38:41;11.60;;;7.17;;
43664;SDS011;29263;48.172;11.484;2023-02-28T11:43:53;13.53;;;7.73;;
43664;SDS011;29263;48.172;11.484;2023-02-28T11:46:43;13.03;;;7.47;;
43664;SDS011;29263;48.172;11.484;2023-02-28T11:52:00;12.77;;;7.43;;
43664;SDS011;29263;48.172;11.484;2023-02-28T11:55:49;12.23;;;7.90;;
43664;SDS011;29263;48.172;11.484;2023-02-28T12:07:16;10.33;;;6.83;;
43664;SDS011;29263;48.172;11.484;2023-02-28T12:10:19;10.73;;;6.90;;
43664;SDS011;29263;48.172;11.484;2023-02-28T12:21:11;13.23;;;7.40;;
43664;SDS011;29263;48.172;11.484;2023-02-28T12:24:04;10.77;;;6.43;;
43664;SDS011;29263;48.172;11.484;2023-02-28T12:26:47;10.97;;;7.23;;
43664;SDS011;29263;48.172;11.484;2023-02-28T12:31:59;9.57;;;7.07;;
43664;SDS011;29263;48.172;11.484;2023-02-28T12:34:49;12.00;;;7.23;;
43664;SDS011;29263;48.172;11.484;2023-02-28T12:37:31;12.10;;;6.90;;
43664;SDS011;29263;48.172;11.484;2023-02-28T12:40:17;11.80;;;7.20;;
43664;SDS011;29263;48.172;11.484;2023-02-28T12:42:46;12.20;;;7.13;;
43664;SDS011;29263;48.172;11.484;2023-02-28T12:45:20;10.00;;;6.67;;
43664;SDS011;29263;48.172;11.484;2023-02-28T12:47:50;10.73;;;7.32;;
43664;SDS011;29263;48.172;11.484;2023-02-28T12:50:29;11.03;;;7.37;;
43664;SDS011;29263;48.172;11.484;2023-02-28T12:55:45;12.33;;;7.43;;
43664;SDS011;29263;48.172;11.484;2023-02-28T12:58:31;11.60;;;6.43;;
43664;SDS011;29263;48.172;11.484;2023-02-28T13:09:29;11.10;;;6.67;;
43664;SDS011;29263;48.172;11.484;2023-02-28T13:11:55;9.80;;;6.47;;
43664;SDS011;29263;48.172;11.484;2023-02-28T13:22:05;8.70;;;5.93;;
43664;SDS011;29263;48.172;11.484;2023-02-28T13:24:45;9.37;;;6.60;;
43664;SDS011;29263;48.172;11.484;2023-02-28T13:27:19;9.27;;;6.57;;
43664;SDS011;29263;48.172;11.484;2023-02-28T13:29:49;9.47;;;6.60;;
43664;SDS011;29263;48.172;11.484;2023-02-28T13:39:53;11.03;;;6.10;;
43664;SDS011;29263;48.172;11.484;2023-02-28T13:42:48;8.50;;;6.10;;
43664;SDS011;29263;48.172;11.484;2023-02-28T13:45:51;12.50;;;7.53;;
43664;SDS011;29263;48.172;11.484;2023-02-28T13:48:27;9.83;;;6.97;;
43664;SDS011;29263;48.172;11.484;2023-02-28T13:50:54;11.30;;;6.50;;
43664;SDS011;29263;48.172;11.484;2023-02-28T13:53:45;10.33;;;6.63;;
43664;SDS011;29263;48.172;11.484;2023-02-28T13:56:30;12.30;;;6.67;;
43664;SDS011;29263;48.172;11.484;2023-02-28T13:59:07;11.07;;;7.13;;
43664;SDS011;29263;48.172;11.484;2023-02-28T14:06:59;11.43;;;7.30;;
43664;SDS011;29263;48.172;11.484;2023-02-28T14:09:35;10.77;;;7.20;;
43664;SDS011;29263;48.172;11.484;2023-02-28T14:18:03;7.73;;;6.33;;
43664;SDS011;29263;48.172;11.484;2023-02-28T14:20:52;11.70;;;6.90;;
43664;SDS011;29263;48.172;11.484;2023-02-28T14:31:39;10.80;;;7.17;;
43664;SDS011;29263;48.172;11.484;2023-02-28T14:34:17;11.93;;;7.40;;
43664;SDS011;29263;48.172;11.484;2023-02-28T14:37:04;11.27;;;6.90;;
43664;SDS011;29263;48.172;11.484;2023-02-28T14:39:30;12.47;;;7.37;;
43664;SDS011;29263;48.172;11.484;2023-02-28T14:41:57;11.23;;;7.57;;
43664;SDS011;29263;48.172;11.484;2023-02-28T14:44:30;11.77;;;7.00;;
43664;SDS011;29263;48.172;11.484;2023-02-28T14:46:57;10.43;;;6.90;;
43664;SDS011;29263;48.172;11.484;2023-02-28T14:49:35;11.80;;;6.77;;
43664;SDS011;29263;48.172;11.484;2023-02-28T14:54:35;8.57;;;6.10;;
43664;SDS011;29263;48.172;11.484;2023-02-28T14:57:02;10.00;;;6.87;;
43664;SDS011;29263;48.172;11.484;2023-02-28T14:59:29;7.63;;;6.13;;
43664;SDS011;29263;48.172;11.484;2023-02-28T15:04:53;11.70;;;6.30;;
43664;SDS011;29263;48.172;11.484;2023-02-28T15:07:20;8.87;;;6.60;;
43664;SDS011;29263;48.172;11.484;2023-02-28T15:10:06;9.43;;;7.10;;
43664;SDS011;29263;48.172;11.484;2023-02-28T15:12:45;9.53;;;6.77;;
43664;SDS011;29263;48.172;11.484;2023-02-28T15:15:27;13.90;;;6.57;;
43664;SDS011;29263;48.172;11.484;2023-02-28T15:18:04;8.63;;;5.90;;
43664;SDS011;29263;48.172;11.484;2023-02-28T15:20:31;7.87;;;6.07;;
43664;SDS011;29263;48.172;11.484;2023-02-28T15:22:58;12.13;;;6.53;;
43664;SDS011;29263;48.172;11.484;2023-02-28T15:25:24;8.60;;;6.17;;
43664;SDS011;29263;48.172;11.484;2023-02-28T15:27:54;8.87;;;6.60;;
43664;SDS011;29263;48.172;11.484;2023-02-28T15:30:30;9.30;;;6.77;;
43664;SDS011;29263;48.172;11.484;2023-02-28T15:35:45;9.53;;;6.60;;
43664;SDS011;29263;48.172;11.484;2023-02-28T15:38:17;9.60;;;6.47;;
43664;SDS011;29263;48.172;11.484;2023-02-28T15:40:52;7.73;;;5.97;;
43664;SDS011;29263;48.172;11.484;2023-02-28T15:43:23;12.23;;;7.10;;
43664;SDS011;29263;48.172;11.484;2023-02-28T15:46:00;7.40;;;6.10;;
43664;SDS011;29263;48.172;11.484;2023-02-28T15:48:32;8.47;;;6.10;;
43664;SDS011;29263;48.172;11.484;2023-02-28T15:51:20;9.90;;;7.07;;
43664;SDS011;29263;48.172;11.484;2023-02-28T15:54:00;8.93;;;6.37;;
43664;SDS011;29263;48.172;11.484;2023-02-28T15:56:30;10.23;;;6.70;;
43664;SDS011;29263;48.172;11.484;2023-02-28T15:59:04;10.23;;;6.23;;
43664;SDS011;29263;48.172;11.484;2023-02-28T16:01:32;10.25;;;6.93;;
43664;SDS011;29263;48.172;11.484;2023-02-28T16:04:03;16.97;;;11.10;;
43664;SDS011;29263;48.172;11.484;2023-02-28T16:06:39;11.27;;;7.77;;
43664;SDS011;29263;48.172;11.484;2023-02-28T16:09:24;11.73;;;8.00;;
43664;SDS011;29263;48.172;11.484;2023-02-28T16:11:52;12.40;;;7.33;;
43664;SDS011;29263;48.172;11.484;2023-02-28T16:14:21;12.93;;;8.70;;
43664;SDS011;29263;48.172;11.484;2023-02-28T16:16:52;11.50;;;7.87;;
43664;SDS011;29263;48.172;11.484;2023-02-28T16:19:19;11.37;;;7.80;;
43664;SDS011;29263;48.172;11.484;2023-02-28T16:21:46;13.20;;;7.00;;
43664;SDS011;29263;48.172;11.484;2023-02-28T16:24:14;9.50;;;6.40;;
43664;SDS011;29263;48.172;11.484;2023-02-28T16:26:40;9.60;;;6.73;;
43664;SDS011;29263;48.172;11.484;2023-02-28T16:29:11;10.30;;;7.20;;
43664;SDS011;29263;48.172;11.484;2023-02-28T16:31:41;8.73;;;6.60;;
43664;SDS011;29263;48.172;11.484;2023-02-28T16:34:07;9.87;;;6.93;;
43664;SDS011;29263;48.172;11.484;2023-02-28T16:36:33;10.57;;;6.90;;
43664;SDS011;29263;48.172;11.484;2023-02-28T16:38:58;9.80;;;6.93;;
43664;SDS011;29263;48.172;11.484;2023-02-28T16:41:25;11.27;;;6.87;;
43664;SDS011;29263;48.172;11.484;2023-02-28T16:43:53;10.43;;;6.93;;
43664;SDS011;29263;48.172;11.484;2023-02-28T16:46:24;11.87;;;6.77;;
43664;SDS011;29263;48.172;11.484;2023-02-28T16:48:52;10.45;;;6.85;;
43664;SDS011;29263;48.172;11.484;2023-02-28T16:51:18;10.77;;;6.77;;
43664;SDS011;29263;48.172;11.484;2023-02-28T16:53:44;10.13;;;6.57;;
43664;SDS011;29263;48.172;11.484;2023-02-28T16:56:20;12.80;;;6.97;;
43664;SDS011;29263;48.172;11.484;2023-02-28T16:58:48;11.57;;;6.77;;
43664;SDS011;29263;48.172;11.484;2023-02-28T17:01:14;13.40;;;7.90;;
43664;SDS011;29263;48.172;11.484;2023-02-28T17:03:41;12.37;;;7.40;;
43664;SDS011;29263;48.172;11.484;2023-02-28T17:06:17;9.37;;;6.30;;
43664;SDS011;29263;48.172;11.484;2023-02-28T17:08:47;11.02;;;6.40;;
43664;SDS011;29263;48.172;11.484;2023-02-28T17:11:13;11.90;;;7.17;;